createdAt,value
2023-11-19T00:01:38.922Z,37.70
2023-11-19T00:06:43.350Z,38.22
2023-11-19T00:11:54.385Z,37.83
2023-11-19T00:16:57.734Z,37.05
2023-11-19T00:22:04.135Z,38.95
2023-11-19T00:27:08.898Z,38.00
2023-11-19T00:32:12.666Z,37.45
2023-11-19T00:37:17.755Z,37.80
2023-11-19T00:42:21.612Z,37.92
2023-11-19T00:47:24.566Z,38.10
2023-11-19T00:52:28.878Z,38.55
2023-11-19T00:57:33.914Z,37.92
2023-11-19T01:02:36.981Z,37.72
2023-11-19T01:07:41.400Z,38.35
2023-11-19T01:12:44.327Z,37.83
2023-11-19T01:22:54.523Z,38.72
2023-11-19T01:27:59.676Z,38.25
2023-11-19T01:33:02.737Z,37.85
2023-11-19T01:38:06.990Z,38.75
2023-11-19T01:43:12.522Z,38.22
2023-11-19T01:48:16.697Z,38.85
2023-11-19T01:53:21.226Z,38.13
2023-11-19T01:58:25.275Z,38.70
2023-11-19T02:03:30.387Z,38.00
2023-11-19T02:08:34.871Z,39.42
2023-11-19T02:13:40.277Z,39.20
2023-11-19T02:18:44.093Z,38.28
2023-11-19T02:23:48.695Z,38.83
2023-11-19T02:28:53.533Z,38.35
2023-11-19T02:33:56.580Z,38.35
2023-11-19T02:38:59.521Z,38.80
2023-11-19T02:44:04.322Z,38.70
2023-11-19T02:49:07.873Z,39.55
2023-11-19T02:54:11.044Z,38.42
2023-11-19T02:59:28.188Z,38.17
2023-11-19T03:04:31.862Z,38.05
2023-11-19T03:09:34.988Z,39.53
2023-11-19T03:14:39.263Z,38.70
2023-11-19T03:19:42.581Z,38.65
2023-11-19T03:24:45.682Z,38.70
2023-11-19T03:29:49.972Z,38.65
2023-11-19T03:34:53.183Z,40.92
2023-11-19T03:40:02.789Z,39.58
2023-11-19T03:45:09.682Z,38.28
2023-11-19T03:50:12.685Z,37.88
2023-11-19T03:55:15.691Z,37.95
2023-11-19T04:00:22.173Z,39.50
2023-11-19T04:05:25.248Z,38.33
2023-11-19T04:10:28.707Z,40.17
2023-11-19T04:15:34.782Z,37.88
2023-11-19T04:20:37.737Z,39.60
2023-11-19T04:25:40.848Z,38.80
2023-11-19T04:30:45.377Z,38.70
2023-11-19T04:35:48.367Z,38.40
2023-11-19T04:40:51.388Z,38.45
2023-11-19T04:45:55.834Z,37.80
2023-11-19T04:50:59.045Z,38.63
2023-11-19T04:56:02.018Z,38.90
2023-11-19T05:01:06.928Z,38.67
2023-11-19T05:06:10.502Z,38.63
2023-11-19T05:11:18.997Z,38.15
2023-11-19T05:16:23.340Z,39.15
2023-11-19T05:21:26.305Z,38.38
2023-11-19T05:26:29.263Z,38.13
2023-11-19T05:31:36.684Z,38.35
2023-11-19T05:36:40.703Z,38.60
2023-11-19T05:41:43.844Z,38.25
2023-11-19T05:46:48.232Z,38.42
2023-11-19T05:51:52.359Z,38.42
2023-11-19T05:56:55.909Z,39.80
2023-11-19T06:02:01.311Z,38.38
2023-11-19T06:07:04.316Z,39.20
2023-11-19T06:12:08.552Z,38.78
2023-11-19T06:17:13.378Z,38.95
2023-11-19T06:22:16.504Z,38.70
2023-11-19T06:27:19.616Z,38.75
2023-11-19T06:32:23.916Z,39.45
2023-11-19T06:37:28.318Z,38.17
2023-11-19T06:42:31.367Z,38.83
2023-11-19T06:47:35.664Z,38.53
2023-11-19T06:52:39.432Z,38.40
2023-11-19T06:57:42.689Z,38.75
2023-11-19T07:02:47.077Z,39.75
2023-11-19T07:07:50.089Z,38.80
2023-11-19T07:12:53.031Z,38.75
2023-11-19T07:18:02.724Z,38.63
2023-11-19T07:23:06.369Z,38.63
2023-11-19T07:28:09.358Z,38.67
2023-11-19T07:33:14.799Z,39.10
2023-11-19T07:38:18.182Z,39.25
2023-11-19T07:43:21.177Z,38.97
2023-11-19T07:48:25.700Z,38.45
2023-11-19T07:53:29.188Z,38.70
2023-11-19T07:58:32.203Z,39.65
2023-11-19T08:03:36.745Z,39.60
2023-11-19T08:08:40.196Z,39.50
2023-11-19T08:13:43.801Z,40.95
2023-11-19T08:18:48.120Z,41.50
2023-11-19T08:23:51.116Z,39.03
2023-11-19T08:28:54.211Z,39.22
2023-11-19T08:33:58.477Z,38.95
2023-11-19T08:39:01.454Z,39.10
2023-11-19T08:44:04.502Z,39.00
2023-11-19T08:49:09.583Z,38.80
2023-11-19T08:54:13.848Z,40.30
2023-11-19T08:59:18.475Z,39.38
2023-11-19T09:04:23.893Z,40.58
2023-11-19T09:09:26.988Z,39.45
2023-11-19T09:14:29.943Z,38.88
2023-11-19T09:19:37.077Z,39.55
2023-11-19T09:24:40.141Z,39.20
2023-11-19T09:29:44.378Z,39.05
2023-11-19T09:34:48.810Z,39.40
2023-11-19T09:39:51.789Z,38.75
2023-11-19T09:44:57.016Z,39.85
2023-11-19T09:50:01.576Z,39.90
2023-11-19T09:55:04.754Z,39.40
2023-11-19T10:00:08.867Z,39.45
2023-11-19T10:05:14.007Z,38.75
2023-11-19T10:10:20.084Z,40.78
2023-11-19T10:15:25.469Z,39.25
2023-11-19T10:20:29.955Z,39.47
2023-11-19T10:25:33.045Z,39.28
2023-11-19T10:30:36.114Z,43.13
2023-11-19T10:41:01.743Z,39.78
2023-11-19T10:46:12.887Z,39.97
2023-11-19T10:51:22.718Z,39.95
2023-11-19T10:56:27.733Z,39.65
2023-11-19T11:01:37.040Z,40.72
2023-11-19T11:06:42.160Z,40.22
2023-11-19T11:11:49.633Z,39.17
2023-11-19T11:16:55.317Z,40.05
2023-11-19T11:22:01.105Z,39.47
2023-11-19T11:27:33.792Z,40.83
2023-11-19T11:32:46.138Z,40.05
2023-11-19T11:37:55.367Z,41.25
2023-11-19T11:42:58.498Z,40.60
2023-11-19T11:48:18.053Z,40.50
2023-11-19T11:53:28.634Z,41.30
2023-11-19T11:58:46.913Z,40.35
2023-11-19T12:03:58.841Z,41.80
2023-11-19T12:09:04.609Z,43.15
2023-11-19T12:14:07.828Z,40.22
2023-11-19T12:19:11.279Z,40.50
2023-11-19T12:24:16.044Z,39.97
2023-11-19T12:29:19.384Z,40.67
2023-11-19T12:34:25.969Z,42.03
2023-11-19T12:39:33.343Z,41.33
2023-11-19T12:44:36.423Z,40.15
2023-11-19T12:49:39.443Z,41.35
2023-11-19T12:54:43.775Z,41.42
2023-11-19T12:59:57.208Z,41.40
2023-11-19T13:05:00.218Z,40.67
2023-11-19T13:10:05.731Z,40.80
2023-11-19T13:15:24.669Z,39.97
2023-11-19T13:20:27.664Z,40.80
2023-11-19T13:25:33.119Z,41.35
2023-11-19T13:30:36.164Z,40.90
2023-11-19T13:35:41.369Z,40.85
2023-11-19T13:40:45.827Z,42.70
2023-11-19T13:45:48.827Z,40.47
2023-11-19T13:50:51.917Z,43.08
2023-11-19T13:55:56.429Z,41.95
2023-11-19T14:00:59.944Z,40.42
2023-11-19T14:06:03.769Z,42.35
2023-11-19T14:11:08.713Z,40.15
2023-11-19T14:16:13.826Z,40.22
2023-11-19T14:21:19.195Z,40.33
2023-11-19T14:26:23.505Z,40.72
2023-11-19T14:31:30.064Z,40.78
2023-11-19T14:36:33.070Z,40.83
2023-11-19T14:41:37.384Z,41.25
2023-11-19T14:46:40.545Z,40.63
2023-11-19T14:51:43.737Z,41.25
2023-11-19T14:56:48.345Z,40.22
2023-11-19T15:01:51.357Z,42.45
2023-11-19T15:06:55.094Z,41.08
2023-11-19T15:12:03.326Z,39.92
2023-11-19T15:17:08.189Z,39.85
2023-11-19T15:22:12.579Z,42.50
2023-11-19T15:27:17.025Z,39.85
2023-11-19T15:32:20.180Z,40.67
2023-11-19T15:37:23.195Z,42.80
2023-11-19T15:42:27.682Z,41.28
2023-11-19T15:47:30.717Z,39.75
2023-11-19T15:52:33.942Z,40.40
2023-11-19T15:57:38.358Z,40.42
2023-11-19T16:02:41.686Z,40.72
2023-11-19T16:07:44.838Z,41.05
2023-11-19T16:12:49.356Z,42.25
2023-11-19T16:17:52.444Z,41.42
2023-11-19T16:22:55.615Z,41.28
2023-11-19T16:28:00.581Z,41.13
2023-11-19T16:33:04.452Z,41.47
2023-11-19T16:38:08.012Z,40.33
2023-11-19T16:43:13.753Z,41.13
2023-11-19T16:48:16.843Z,44.00
2023-11-19T16:53:19.938Z,40.42
2023-11-19T16:58:25.114Z,41.22
2023-11-19T17:03:28.203Z,41.10
2023-11-19T17:08:33.467Z,40.80
2023-11-19T17:13:38.203Z,41.20
2023-11-19T17:18:48.864Z,42.40
2023-11-19T17:23:51.814Z,40.90
2023-11-19T17:28:58.241Z,43.20
2023-11-19T17:34:01.375Z,41.97
2023-11-19T17:39:05.153Z,40.42
2023-11-19T17:44:09.636Z,43.45
2023-11-19T17:49:15.462Z,40.67
2023-11-19T17:54:19.418Z,41.95
2023-11-19T17:59:25.941Z,41.47
2023-11-19T18:04:32.737Z,40.50
2023-11-19T18:09:35.747Z,42.53
2023-11-19T18:19:46.924Z,41.50
2023-11-19T18:24:50.780Z,40.47
2023-11-19T18:29:55.125Z,40.22
2023-11-19T18:34:58.170Z,42.30
2023-11-19T18:40:01.906Z,40.45
2023-11-19T18:45:13.317Z,40.50
2023-11-19T18:50:18.223Z,39.95
2023-11-19T18:55:23.089Z,41.05
2023-11-19T19:00:27.744Z,41.10
2023-11-19T19:05:32.903Z,45.60
2023-11-19T19:10:38.556Z,44.03
2023-11-19T19:15:44.605Z,42.35
2023-11-19T19:20:48.527Z,40.50
2023-11-19T19:25:52.625Z,41.28
2023-11-19T19:30:58.656Z,40.50
2023-11-19T19:36:03.607Z,40.70
2023-11-19T19:41:06.985Z,40.67
2023-11-19T19:46:12.278Z,41.28
2023-11-19T19:51:15.282Z,42.83
2023-11-19T19:56:18.304Z,42.00
2023-11-19T20:01:24.805Z,43.83
2023-11-19T20:06:31.733Z,41.85
2023-11-19T20:11:36.027Z,41.63
2023-11-19T20:16:41.408Z,42.08
2023-11-19T20:21:45.265Z,41.50
2023-11-19T20:26:54.274Z,41.58
2023-11-19T20:31:59.917Z,43.72
2023-11-19T20:37:03.849Z,41.10
2023-11-19T20:42:07.887Z,42.70
2023-11-19T20:47:13.635Z,43.67
2023-11-19T20:52:17.628Z,41.70
2023-11-19T20:57:20.770Z,41.70
2023-11-19T21:02:25.105Z,44.10
2023-11-19T21:07:28.319Z,42.72
2023-11-19T21:12:31.467Z,46.67
2023-11-19T21:17:36.127Z,41.92
2023-11-19T21:22:39.104Z,40.42
2023-11-19T21:27:42.230Z,42.38
2023-11-19T21:32:46.703Z,40.75
2023-11-19T21:37:49.677Z,44.72
2023-11-19T21:42:53.322Z,45.97
2023-11-19T21:47:57.676Z,44.53
2023-11-19T21:53:00.649Z,42.13
2023-11-19T21:58:05.130Z,42.88
2023-11-19T22:03:10.020Z,43.40
2023-11-19T22:08:18.649Z,43.53
2023-11-19T22:13:21.838Z,42.28
2023-11-19T22:18:26.226Z,47.95
2023-11-19T22:23:29.537Z,41.83
2023-11-19T22:28:34.298Z,46.28
2023-11-19T22:33:39.654Z,47.38
2023-11-19T22:38:42.807Z,43.78
2023-11-19T22:43:46.504Z,48.40
2023-11-19T22:48:53.874Z,43.00
2023-11-19T22:53:57.528Z,43.05
2023-11-19T22:59:00.559Z,43.47
2023-11-19T23:04:05.098Z,42.50
2023-11-19T23:09:08.165Z,41.88
2023-11-19T23:14:14.379Z,43.60
2023-11-19T23:19:18.924Z,44.05
2023-11-19T23:24:21.875Z,41.88
2023-11-19T23:29:26.212Z,44.35
2023-11-19T23:39:36.543Z,44.72
2023-11-19T23:44:39.542Z,44.72
2023-11-19T23:49:43.832Z,43.70
2023-11-19T23:54:46.810Z,47.35
2023-11-19T23:59:49.789Z,44.88
